createdAt,value
2022-12-05T00:00:30.343Z,21.20
2022-12-05T00:03:07.361Z,20.70
2022-12-05T00:05:34.927Z,29.70
2022-12-05T00:08:02.666Z,28.60
2022-12-05T00:10:30.173Z,32.10
2022-12-05T00:12:57.805Z,26.10
2022-12-05T00:15:25.203Z,23.60
2022-12-05T00:17:52.602Z,28.40
2022-12-05T00:20:20.004Z,23.10
2022-12-05T00:22:47.662Z,24.60
2022-12-05T00:25:15.224Z,25.80
2022-12-05T00:27:42.778Z,25.20
2022-12-05T00:30:10.346Z,26.00
2022-12-05T00:32:37.821Z,15.70
2022-12-05T00:35:05.242Z,25.60
2022-12-05T00:37:32.792Z,23.00
2022-12-05T00:40:00.743Z,32.10
2022-12-05T00:42:28.701Z,30.20
2022-12-05T00:44:56.340Z,25.00
2022-12-05T00:47:23.893Z,23.10
2022-12-05T00:49:51.294Z,24.40
2022-12-05T00:52:18.935Z,21.30
2022-12-05T00:54:46.593Z,24.60
2022-12-05T00:57:13.987Z,23.20
2022-12-05T00:59:41.477Z,28.30
2022-12-05T01:02:08.955Z,26.10
2022-12-05T01:04:36.620Z,23.40
2022-12-05T01:07:04.008Z,22.80
2022-12-05T01:09:31.751Z,24.70
2022-12-05T01:11:59.298Z,23.60
2022-12-05T01:14:26.980Z,24.70
2022-12-05T01:16:54.797Z,23.80
2022-12-05T01:19:22.313Z,27.60
2022-12-05T01:21:49.861Z,21.80
2022-12-05T01:24:17.428Z,20.50
2022-12-05T01:26:44.888Z,23.00
2022-12-05T01:29:12.736Z,26.40
2022-12-05T01:31:40.456Z,27.40
2022-12-05T01:34:08.116Z,26.70
2022-12-05T01:36:35.687Z,24.20
2022-12-05T01:39:03.062Z,20.00
2022-12-05T01:41:30.639Z,21.80
2022-12-05T01:43:58.189Z,25.00
2022-12-05T01:46:26.131Z,25.40
2022-12-05T01:48:53.678Z,23.30
2022-12-05T01:51:21.240Z,29.30
2022-12-05T01:53:48.805Z,26.40
2022-12-05T01:56:16.294Z,25.10
2022-12-05T01:58:43.688Z,23.30
2022-12-05T02:01:11.259Z,23.30
2022-12-05T02:03:38.749Z,20.90
2022-12-05T02:06:06.206Z,23.30
2022-12-05T02:08:33.751Z,25.60
2022-12-05T02:11:01.149Z,26.20
2022-12-05T02:13:28.889Z,25.80
2022-12-05T02:15:57.204Z,23.60
2022-12-05T02:18:24.689Z,22.50
2022-12-05T02:20:52.436Z,24.70
2022-12-05T02:23:19.841Z,24.80
2022-12-05T02:25:47.610Z,21.60
2022-12-05T02:28:15.101Z,17.30
2022-12-05T02:30:42.527Z,23.50
2022-12-05T02:33:10.022Z,25.10
2022-12-05T02:35:37.451Z,25.40
2022-12-05T02:38:05.195Z,24.20
2022-12-05T02:40:32.592Z,17.70
2022-12-05T02:43:00.125Z,22.00
2022-12-05T02:45:27.588Z,19.40
2022-12-05T02:47:55.030Z,18.40
2022-12-05T02:50:22.507Z,21.30
2022-12-05T02:52:50.089Z,20.70
2022-12-05T02:55:17.662Z,22.90
2022-12-05T02:57:45.060Z,24.90
2022-12-05T03:00:12.758Z,21.60
2022-12-05T03:02:40.286Z,19.00
2022-12-05T03:05:08.053Z,19.20
2022-12-05T03:07:35.644Z,18.40
2022-12-05T03:10:03.130Z,17.40
2022-12-05T03:12:30.585Z,20.60
2022-12-05T03:14:58.061Z,21.40
2022-12-05T03:17:25.859Z,16.70
2022-12-05T03:19:53.200Z,20.20
2022-12-05T03:22:20.674Z,20.50
2022-12-05T03:24:48.072Z,20.00
2022-12-05T03:27:15.652Z,22.30
2022-12-05T03:29:43.125Z,19.10
2022-12-05T03:32:10.607Z,19.20
2022-12-05T03:34:38.292Z,15.90
2022-12-05T03:37:05.990Z,16.10
2022-12-05T03:39:33.367Z,21.00
2022-12-05T03:42:00.963Z,18.00
2022-12-05T03:44:28.342Z,19.80
2022-12-05T03:46:55.836Z,15.60
2022-12-05T03:49:23.211Z,17.60
2022-12-05T03:51:50.836Z,20.80
2022-12-05T03:54:18.565Z,18.70
2022-12-05T03:56:46.171Z,24.00
2022-12-05T03:59:13.760Z,19.60
2022-12-05T04:01:41.394Z,20.70
2022-12-05T04:04:08.850Z,20.90
2022-12-05T04:06:36.393Z,19.80
2022-12-05T04:09:03.784Z,17.80
2022-12-05T04:11:31.747Z,21.90
2022-12-05T04:13:59.255Z,17.90
2022-12-05T04:16:26.861Z,19.90
2022-12-05T04:18:54.885Z,20.20
2022-12-05T04:21:22.283Z,20.30
2022-12-05T04:23:50.110Z,14.80
2022-12-05T04:26:17.511Z,19.00
2022-12-05T04:28:45.313Z,21.00
2022-12-05T04:31:12.855Z,23.70
2022-12-05T04:33:40.531Z,25.40
2022-12-05T04:36:08.159Z,19.80
2022-12-05T04:38:35.751Z,18.20
2022-12-05T04:41:03.128Z,21.60
2022-12-05T04:43:30.940Z,21.00
2022-12-05T04:45:58.378Z,23.80
2022-12-05T04:48:26.046Z,21.40
2022-12-05T04:50:53.454Z,22.20
2022-12-05T04:53:21.041Z,22.80
2022-12-05T04:55:48.602Z,20.90
2022-12-05T04:58:16.163Z,25.10
2022-12-05T05:00:43.679Z,21.30
2022-12-05T05:03:11.126Z,17.50
2022-12-05T05:05:38.971Z,26.30
2022-12-05T05:08:06.566Z,28.20
2022-12-05T05:10:34.166Z,25.00
2022-12-05T05:13:01.726Z,20.50
2022-12-05T05:15:29.504Z,21.40
2022-12-05T05:17:56.969Z,18.90
2022-12-05T05:20:24.325Z,21.80
2022-12-05T05:22:52.232Z,25.10
2022-12-05T05:25:19.828Z,23.10
2022-12-05T05:27:47.433Z,23.10
2022-12-05T05:30:15.114Z,18.90
2022-12-05T05:32:42.784Z,20.30
2022-12-05T05:35:10.340Z,19.80
2022-12-05T05:37:38.089Z,17.10
2022-12-05T05:40:10.723Z,25.70
2022-12-05T05:42:38.531Z,24.60
2022-12-05T05:45:06.090Z,29.00
2022-12-05T05:47:33.485Z,21.40
2022-12-05T05:50:01.307Z,23.10
2022-12-05T05:52:28.828Z,21.50
2022-12-05T05:54:56.309Z,16.30
2022-12-05T05:57:23.860Z,21.70
2022-12-05T05:59:51.311Z,23.60
2022-12-05T06:02:19.018Z,21.50
2022-12-05T06:04:46.612Z,18.00
2022-12-05T06:07:14.264Z,20.20
2022-12-05T06:09:41.642Z,26.20
2022-12-05T06:12:09.533Z,34.50
2022-12-05T06:14:37.076Z,35.10
2022-12-05T06:17:04.759Z,34.40
2022-12-05T06:19:32.380Z,31.60
2022-12-05T06:21:59.783Z,29.40
2022-12-05T06:24:27.189Z,31.30
2022-12-05T06:26:54.715Z,25.70
2022-12-05T06:29:25.719Z,19.60
2022-12-05T06:31:54.434Z,29.50
2022-12-05T06:34:22.136Z,25.40
2022-12-05T06:36:49.850Z,25.90
2022-12-05T06:39:17.419Z,26.50
2022-12-05T06:41:44.791Z,28.40
2022-12-05T06:44:12.741Z,25.50
2022-12-05T06:46:40.303Z,32.20
2022-12-05T06:49:07.955Z,33.30
2022-12-05T06:51:35.386Z,31.60
2022-12-05T06:54:02.879Z,26.00
2022-12-05T06:56:30.487Z,33.20
2022-12-05T06:58:57.946Z,27.70
2022-12-05T07:01:25.746Z,21.10
2022-12-05T07:03:53.426Z,20.80
2022-12-05T07:06:20.817Z,22.70
2022-12-05T07:08:48.324Z,25.60
2022-12-05T07:11:15.712Z,27.00
2022-12-05T07:13:43.275Z,27.60
2022-12-05T07:16:11.003Z,27.00
2022-12-05T07:18:38.691Z,18.60
2022-12-05T07:21:14.002Z,24.90
2022-12-05T07:23:41.828Z,30.90
2022-12-05T07:26:09.526Z,31.70
2022-12-05T07:28:37.449Z,28.20
2022-12-05T07:31:05.003Z,21.60
2022-12-05T07:33:32.668Z,23.50
2022-12-05T07:36:00.172Z,17.20
2022-12-05T07:38:27.557Z,22.10
2022-12-05T07:40:55.197Z,20.60
2022-12-05T07:43:22.846Z,26.50
2022-12-05T07:45:50.340Z,20.30
2022-12-05T07:48:19.000Z,22.10
2022-12-05T07:50:47.132Z,22.90
2022-12-05T07:53:14.711Z,16.20
2022-12-05T07:55:42.155Z,18.40
2022-12-05T07:58:09.734Z,22.60
2022-12-05T08:00:37.214Z,20.40
2022-12-05T08:03:04.822Z,23.40
2022-12-05T08:05:32.573Z,21.10
2022-12-05T08:08:00.281Z,21.30
2022-12-05T08:10:27.790Z,22.20
2022-12-05T08:12:55.321Z,17.70
2022-12-05T08:15:23.267Z,23.60
2022-12-05T08:17:50.664Z,21.20
2022-12-05T08:20:18.055Z,13.90
2022-12-05T08:22:45.868Z,17.60
2022-12-05T08:25:13.347Z,15.40
2022-12-05T08:27:41.141Z,19.20
2022-12-05T08:30:08.777Z,20.50
2022-12-05T08:32:36.357Z,23.10
2022-12-05T08:35:03.739Z,17.90
2022-12-05T08:37:31.237Z,20.20
2022-12-05T08:39:59.406Z,21.60
2022-12-05T08:42:27.258Z,17.70
2022-12-05T08:44:54.964Z,24.00
2022-12-05T08:47:22.547Z,20.00
2022-12-05T08:49:50.034Z,15.00
2022-12-05T08:52:17.846Z,25.20
2022-12-05T08:54:45.536Z,20.30
2022-12-05T08:57:13.868Z,24.30
2022-12-05T08:59:41.408Z,18.60
2022-12-05T09:02:08.928Z,20.10
2022-12-05T09:04:36.404Z,23.60
2022-12-05T09:07:03.846Z,27.60
2022-12-05T09:09:31.521Z,24.60
2022-12-05T09:11:59.102Z,25.10
2022-12-05T09:14:26.623Z,22.70
2022-12-05T09:16:54.056Z,26.60
2022-12-05T09:19:21.559Z,24.20
2022-12-05T09:21:49.090Z,25.50
2022-12-05T09:24:16.752Z,21.70
2022-12-05T09:26:44.287Z,23.30
2022-12-05T09:29:16.793Z,26.40
2022-12-05T09:31:45.937Z,24.20
2022-12-05T09:34:13.478Z,23.90
2022-12-05T09:36:40.952Z,27.40
2022-12-05T09:39:08.570Z,25.90
2022-12-05T09:41:36.256Z,27.20
2022-12-05T09:44:03.786Z,26.50
2022-12-05T09:46:35.512Z,28.60
2022-12-05T09:49:03.470Z,24.90
2022-12-05T09:51:31.015Z,26.40
2022-12-05T09:53:58.484Z,25.00
2022-12-05T09:56:26.151Z,26.60
2022-12-05T09:58:53.572Z,25.30
2022-12-05T10:01:21.170Z,30.10
2022-12-05T10:03:48.765Z,29.20
2022-12-05T10:06:16.549Z,30.20
2022-12-05T10:08:44.040Z,31.30
2022-12-05T10:11:11.529Z,29.60
2022-12-05T10:13:39.668Z,30.10
2022-12-05T10:16:07.273Z,31.30
2022-12-05T10:18:34.791Z,27.90
2022-12-05T10:21:02.398Z,25.90
2022-12-05T10:23:56.156Z,29.30
2022-12-05T10:26:17.495Z,27.80
2022-12-05T10:28:45.227Z,26.20
2022-12-05T10:31:13.138Z,33.10
2022-12-05T10:33:40.801Z,30.20
2022-12-05T10:36:08.845Z,27.30
2022-12-05T10:38:36.463Z,27.60
2022-12-05T10:41:03.940Z,28.10
2022-12-05T10:43:31.556Z,29.70
2022-12-05T10:45:59.087Z,33.60
2022-12-05T10:48:26.805Z,34.60
2022-12-05T10:50:54.426Z,39.10
2022-12-05T10:53:22.203Z,31.40
2022-12-05T10:56:21.548Z,32.80
2022-12-05T10:58:37.518Z,36.60
2022-12-05T11:01:04.917Z,36.80
2022-12-05T11:03:33.296Z,35.40
2022-12-05T11:06:01.114Z,42.00
2022-12-05T11:08:56.131Z,33.40
2022-12-05T11:11:16.470Z,31.90
2022-12-05T11:13:43.968Z,23.90
2022-12-05T11:16:11.851Z,32.80
2022-12-05T11:18:39.607Z,33.10
2022-12-05T11:21:07.261Z,30.40
2022-12-05T11:23:34.821Z,28.70
2022-12-05T11:26:02.272Z,23.50
2022-12-05T11:28:30.173Z,24.40
2022-12-05T11:30:57.773Z,24.90
2022-12-05T11:33:25.407Z,23.80
2022-12-05T11:35:52.901Z,25.70
2022-12-05T11:38:20.299Z,25.70
2022-12-05T11:40:47.876Z,29.80
2022-12-05T11:43:15.344Z,28.50
2022-12-05T11:45:42.929Z,22.90
2022-12-05T11:48:10.958Z,22.80
2022-12-05T11:50:38.680Z,28.60
2022-12-05T11:53:06.098Z,25.00
2022-12-05T11:55:33.633Z,27.70
2022-12-05T11:58:01.384Z,34.30
2022-12-05T12:00:28.998Z,22.40
2022-12-05T12:02:56.711Z,27.20
2022-12-05T12:05:24.291Z,27.50
2022-12-05T12:07:52.284Z,26.70
2022-12-05T12:10:20.178Z,35.50
2022-12-05T12:12:47.841Z,30.90
2022-12-05T12:15:15.504Z,30.70
2022-12-05T12:17:43.036Z,28.40
2022-12-05T12:20:10.428Z,27.70
2022-12-05T12:22:37.917Z,37.70
2022-12-05T12:25:05.385Z,40.90
2022-12-05T12:27:32.856Z,24.60
2022-12-05T12:30:00.266Z,25.30
2022-12-05T12:32:27.749Z,23.60
2022-12-05T12:34:55.397Z,21.50
2022-12-05T12:37:23.033Z,37.70
2022-12-05T12:39:50.818Z,34.50
2022-12-05T12:42:18.830Z,28.10
2022-12-05T12:44:46.246Z,30.50
2022-12-05T12:47:13.837Z,33.00
2022-12-05T12:49:41.306Z,37.60
2022-12-05T12:52:08.815Z,27.70
2022-12-05T12:55:02.208Z,36.10
2022-12-05T12:57:24.280Z,37.10
2022-12-05T12:59:51.743Z,37.60
2022-12-05T13:02:19.362Z,34.60
2022-12-05T13:04:47.030Z,30.20
2022-12-05T13:07:14.697Z,30.40
2022-12-05T13:09:44.224Z,30.90
2022-12-05T13:12:13.610Z,33.40
2022-12-05T13:14:41.423Z,37.00
2022-12-05T13:17:09.043Z,41.00
2022-12-05T13:19:36.708Z,38.60
2022-12-05T13:22:04.257Z,37.70
2022-12-05T13:24:31.638Z,35.80
2022-12-05T13:26:59.398Z,35.10
2022-12-05T13:29:26.888Z,35.00
2022-12-05T13:31:54.501Z,39.10
2022-12-05T13:34:22.494Z,39.20
2022-12-05T13:36:50.421Z,41.10
2022-12-05T13:39:18.012Z,43.40
2022-12-05T13:41:45.471Z,44.80
2022-12-05T13:44:12.956Z,42.10
2022-12-05T13:46:40.525Z,41.80
2022-12-05T13:49:11.645Z,43.10
2022-12-05T13:51:41.856Z,42.00
2022-12-05T13:54:09.573Z,40.10
2022-12-05T13:56:37.115Z,48.50
2022-12-05T13:59:04.962Z,46.90
2022-12-05T14:01:33.529Z,49.80
2022-12-05T14:04:01.100Z,47.50
2022-12-05T14:06:29.354Z,54.20
2022-12-05T14:08:56.807Z,46.20
2022-12-05T14:11:24.406Z,50.40
2022-12-05T14:13:52.151Z,56.90
2022-12-05T14:16:19.686Z,51.20
2022-12-05T14:18:48.379Z,54.20
2022-12-05T14:21:17.710Z,46.70
2022-12-05T14:23:46.431Z,48.40
2022-12-05T14:26:14.532Z,51.20
2022-12-05T14:28:45.326Z,50.40
2022-12-05T14:31:14.296Z,53.10
2022-12-05T14:33:42.348Z,45.40
2022-12-05T14:36:09.986Z,50.50
2022-12-05T14:38:37.387Z,49.90
2022-12-05T14:41:06.838Z,48.20
2022-12-05T14:43:34.986Z,44.20
2022-12-05T14:46:02.739Z,50.10
2022-12-05T14:48:30.935Z,42.10
2022-12-05T14:50:58.696Z,49.00
2022-12-05T14:53:26.394Z,49.70
2022-12-05T14:55:54.103Z,52.60
2022-12-05T14:58:21.578Z,52.80
2022-12-05T15:00:49.184Z,56.60
2022-12-05T15:03:16.810Z,54.70
2022-12-05T15:05:44.770Z,53.00
2022-12-05T15:08:12.397Z,48.60
2022-12-05T15:10:40.077Z,48.30
2022-12-05T15:13:08.080Z,59.80
2022-12-05T15:15:35.640Z,51.20
2022-12-05T15:18:03.599Z,54.00
2022-12-05T15:20:35.498Z,58.00
2022-12-05T15:23:06.440Z,49.20
2022-12-05T15:25:34.099Z,60.00
2022-12-05T15:28:02.082Z,54.30
2022-12-05T15:30:29.519Z,58.10
2022-12-05T15:32:59.624Z,59.10
2022-12-05T15:35:27.353Z,60.00
2022-12-05T15:37:54.944Z,64.60
2022-12-05T15:40:22.597Z,58.10
2022-12-05T15:42:50.073Z,67.30
2022-12-05T15:45:17.729Z,57.70
2022-12-05T15:47:45.294Z,49.40
2022-12-05T15:50:12.836Z,52.10
2022-12-05T15:52:40.803Z,72.80
2022-12-05T15:55:08.373Z,68.30
2022-12-05T15:57:36.126Z,65.80
2022-12-05T16:00:04.256Z,60.00
2022-12-05T16:02:32.006Z,56.00
2022-12-05T16:05:00.192Z,59.60
2022-12-05T16:07:27.926Z,58.60
2022-12-05T16:09:55.671Z,49.50
2022-12-05T16:12:23.410Z,52.70
2022-12-05T16:14:59.700Z,48.40
2022-12-05T16:17:28.423Z,45.10
2022-12-05T16:19:55.980Z,49.50
2022-12-05T16:22:23.647Z,41.70
2022-12-05T16:24:51.159Z,41.10
2022-12-05T16:27:18.552Z,37.00
2022-12-05T16:29:46.756Z,36.40
2022-12-05T16:32:14.625Z,45.60
2022-12-05T16:34:42.112Z,48.70
2022-12-05T16:37:09.746Z,50.60
2022-12-05T16:39:37.139Z,43.70
2022-12-05T16:42:04.555Z,45.30
2022-12-05T16:44:32.155Z,55.10
2022-12-05T16:46:59.977Z,55.80
2022-12-05T16:49:27.688Z,63.80
2022-12-05T16:51:55.264Z,60.70
2022-12-05T16:54:22.651Z,60.60
2022-12-05T16:56:50.083Z,58.00
2022-12-05T16:59:17.554Z,68.50
2022-12-05T17:01:45.263Z,61.90
2022-12-05T17:04:12.807Z,64.80
2022-12-05T17:06:40.457Z,64.70
2022-12-05T17:09:07.865Z,60.90
2022-12-05T17:11:35.504Z,61.60
2022-12-05T17:14:02.953Z,61.90
2022-12-05T17:16:30.570Z,57.20
2022-12-05T17:18:58.049Z,58.70
2022-12-05T17:21:25.633Z,57.40
2022-12-05T17:23:53.233Z,54.60
2022-12-05T17:26:20.647Z,56.10
2022-12-05T17:28:48.347Z,61.20
2022-12-05T17:31:15.970Z,75.30
2022-12-05T17:33:43.494Z,75.00
2022-12-05T17:36:10.904Z,71.90
2022-12-05T17:38:38.284Z,75.40
2022-12-05T17:41:07.333Z,62.90
2022-12-05T17:43:34.942Z,69.50
2022-12-05T17:46:02.717Z,79.60
2022-12-05T17:48:30.203Z,80.20
2022-12-05T17:50:57.723Z,86.40
2022-12-05T17:53:25.230Z,80.80
2022-12-05T17:55:52.702Z,76.00
2022-12-05T17:58:20.361Z,119.70
2022-12-05T18:00:48.054Z,105.30
2022-12-05T18:03:15.663Z,104.40
2022-12-05T18:05:43.375Z,88.40
2022-12-05T18:08:10.832Z,101.40
2022-12-05T18:10:38.558Z,111.70
2022-12-05T18:13:05.950Z,129.30
2022-12-05T18:15:36.659Z,136.20
2022-12-05T18:18:07.083Z,128.60
2022-12-05T18:20:34.523Z,127.30
2022-12-05T18:23:01.925Z,117.20
2022-12-05T18:25:29.582Z,111.70
2022-12-05T18:27:57.008Z,111.10
2022-12-05T18:30:24.538Z,115.00
2022-12-05T18:32:52.154Z,103.10
2022-12-05T18:35:19.719Z,108.60
2022-12-05T18:37:47.168Z,101.50
2022-12-05T18:40:14.565Z,114.80
2022-12-05T18:42:41.933Z,121.80
2022-12-05T18:45:09.468Z,119.00
2022-12-05T18:47:36.970Z,128.10
2022-12-05T18:50:04.617Z,103.70
2022-12-05T18:52:32.093Z,98.90
2022-12-05T18:55:16.263Z,84.10
2022-12-05T18:57:44.272Z,77.50
2022-12-05T19:00:11.730Z,78.00
2022-12-05T19:02:39.378Z,75.80
2022-12-05T19:05:06.895Z,67.30
2022-12-05T19:07:34.529Z,63.90
2022-12-05T19:10:01.951Z,54.60
2022-12-05T19:12:29.525Z,51.60
2022-12-05T19:14:57.591Z,53.60
2022-12-05T19:17:25.335Z,45.70
2022-12-05T19:19:53.396Z,38.60
2022-12-05T19:22:21.074Z,51.20
2022-12-05T19:24:48.660Z,49.60
2022-12-05T19:27:16.179Z,57.00
2022-12-05T19:29:43.579Z,58.40
2022-12-05T19:32:11.267Z,58.50
2022-12-05T19:34:38.899Z,58.70
2022-12-05T19:37:06.550Z,57.10
2022-12-05T19:39:33.932Z,59.20
2022-12-05T19:42:01.355Z,62.60
2022-12-05T19:44:28.795Z,65.10
2022-12-05T19:46:56.374Z,69.50
2022-12-05T19:49:23.846Z,64.40
2022-12-05T19:51:51.249Z,66.80
2022-12-05T19:54:18.672Z,94.50
2022-12-05T19:56:46.074Z,104.50
2022-12-05T19:59:13.520Z,110.40
2022-12-05T20:01:41.013Z,107.40
2022-12-05T20:04:08.567Z,88.70
2022-12-05T20:06:36.022Z,85.20
2022-12-05T20:09:03.387Z,86.00
2022-12-05T20:11:30.791Z,95.70
2022-12-05T20:13:58.201Z,91.50
2022-12-05T20:16:25.779Z,104.40
2022-12-05T20:18:53.615Z,89.90
2022-12-05T20:21:21.473Z,87.60
2022-12-05T20:23:48.878Z,94.60
2022-12-05T20:26:16.275Z,91.60
2022-12-05T20:28:43.989Z,91.10
2022-12-05T20:31:11.561Z,87.80
2022-12-05T20:33:39.345Z,82.10
2022-12-05T20:36:06.972Z,78.20
2022-12-05T20:38:34.650Z,81.90
2022-12-05T20:41:02.105Z,84.80
2022-12-05T20:43:30.027Z,78.50
2022-12-05T20:45:57.748Z,75.10
2022-12-05T20:48:25.237Z,71.20
2022-12-05T20:50:52.857Z,68.90
2022-12-05T20:53:20.600Z,72.90
2022-12-05T20:55:48.076Z,100.40
2022-12-05T20:58:15.982Z,105.40
2022-12-05T21:00:43.704Z,99.20
2022-12-05T21:03:16.841Z,93.30
2022-12-05T21:05:45.132Z,88.90
2022-12-05T21:08:12.795Z,80.10
2022-12-05T21:10:40.631Z,84.60
2022-12-05T21:13:08.007Z,89.00
2022-12-05T21:15:35.642Z,91.90
2022-12-05T21:18:03.219Z,94.30
2022-12-05T21:20:30.595Z,95.40
2022-12-05T21:22:58.309Z,75.70
2022-12-05T21:25:25.852Z,81.40
2022-12-05T21:27:53.550Z,75.90
2022-12-05T21:30:20.941Z,71.70
2022-12-05T21:32:48.575Z,85.90
2022-12-05T21:35:16.162Z,81.20
2022-12-05T21:37:43.772Z,73.70
2022-12-05T21:40:11.257Z,69.50
2022-12-05T21:42:39.071Z,74.50
2022-12-05T21:45:06.593Z,62.60
2022-12-05T21:47:34.207Z,69.70
2022-12-05T21:50:01.973Z,73.90
2022-12-05T21:52:29.629Z,65.50
2022-12-05T21:54:57.283Z,71.90
2022-12-05T21:57:24.871Z,70.40
2022-12-05T21:59:52.544Z,69.70
2022-12-05T22:02:20.527Z,75.10
2022-12-05T22:04:48.373Z,64.40
2022-12-05T22:07:15.858Z,71.60
2022-12-05T22:09:43.442Z,73.30
2022-12-05T22:12:10.996Z,69.60
2022-12-05T22:14:38.700Z,74.00
2022-12-05T22:17:06.095Z,78.80
2022-12-05T22:19:33.831Z,75.30
2022-12-05T22:22:01.241Z,81.00
2022-12-05T22:24:28.650Z,94.70
2022-12-05T22:26:56.152Z,101.50
2022-12-05T22:29:23.993Z,99.00
2022-12-05T22:31:51.503Z,104.10
2022-12-05T22:34:19.521Z,94.80
2022-12-05T22:36:47.214Z,95.60
2022-12-05T22:39:14.942Z,105.20
2022-12-05T22:41:42.659Z,103.80
2022-12-05T22:44:10.425Z,108.10
2022-12-05T22:46:38.004Z,101.70
2022-12-05T22:49:05.663Z,105.90
2022-12-05T22:51:33.306Z,99.30
2022-12-05T22:54:00.955Z,99.30
2022-12-05T22:56:28.361Z,100.30
2022-12-05T22:58:55.754Z,101.30
2022-12-05T23:01:23.268Z,108.40
2022-12-05T23:03:51.097Z,117.40
2022-12-05T23:06:18.779Z,110.20
2022-12-05T23:08:46.230Z,101.10
2022-12-05T23:11:13.710Z,109.10
2022-12-05T23:13:41.559Z,105.20
2022-12-05T23:16:09.010Z,97.40
2022-12-05T23:18:36.938Z,93.40
2022-12-05T23:21:04.823Z,90.50
2022-12-05T23:23:32.501Z,84.70
2022-12-05T23:26:00.237Z,95.30
2022-12-05T23:28:27.848Z,97.50
2022-12-05T23:30:55.312Z,95.90
2022-12-05T23:33:23.000Z,95.60
2022-12-05T23:35:50.671Z,96.10
2022-12-05T23:38:18.417Z,90.60
2022-12-05T23:40:45.918Z,90.80
2022-12-05T23:43:13.480Z,93.90
2022-12-05T23:45:41.102Z,111.40
2022-12-05T23:48:09.058Z,107.60
2022-12-05T23:50:36.811Z,109.20
2022-12-05T23:53:04.491Z,106.20
2022-12-05T23:55:31.934Z,120.90
2022-12-05T23:57:59.593Z,109.10
